sensor_id;sensor_type;location;lat;lon;timestamp;pressure;altitude;pressure_sealevel;temperature;humidity
32456;BME280;18912;43.270;27.942;2022-09-24T00:00:42;98335.84;;;8.98;79.39
32456;BME280;18912;43.270;27.942;2022-09-24T00:03:08;98341.03;;;8.99;79.29
32456;BME280;18912;43.270;27.942;2022-09-24T00:05:38;98342.44;;;8.95;79.38
32456;BME280;18912;43.270;27.942;2022-09-24T00:08:06;98341.81;;;8.93;79.27
32456;BME280;18912;43.270;27.942;2022-09-24T00:10:39;98337.47;;;8.92;79.17
32456;BME280;18912;43.270;27.942;2022-09-24T00:13:05;98337.06;;;8.95;78.72
32456;BME280;18912;43.270;27.942;2022-09-24T00:15:38;98321.00;;;8.87;78.64
32456;BME280;18912;43.270;27.942;2022-09-24T00:18:03;98330.53;;;8.83;79.41
32456;BME280;18912;43.270;27.942;2022-09-24T00:20:30;98330.97;;;8.87;79.62
32456;BME280;18912;43.270;27.942;2022-09-24T00:22:56;98321.66;;;8.89;79.58
32456;BME280;18912;43.270;27.942;2022-09-24T00:25:21;98328.06;;;8.88;79.61
32456;BME280;18912;43.270;27.942;2022-09-24T00:28:05;98325.13;;;8.83;79.99
32456;BME280;18912;43.270;27.942;2022-09-24T00:30:30;98329.88;;;8.81;79.61
32456;BME280;18912;43.270;27.942;2022-09-24T00:32:56;98325.25;;;8.75;79.69
32456;BME280;18912;43.270;27.942;2022-09-24T00:35:21;98323.31;;;8.69;79.91
32456;BME280;18912;43.270;27.942;2022-09-24T00:37:49;98316.63;;;8.65;80.27
32456;BME280;18912;43.270;27.942;2022-09-24T00:40:14;98324.44;;;8.60;80.68
32456;BME280;18912;43.270;27.942;2022-09-24T00:42:40;98326.19;;;8.68;80.40
32456;BME280;18912;43.270;27.942;2022-09-24T00:45:08;98317.66;;;8.64;80.36
32456;BME280;18912;43.270;27.942;2022-09-24T00:47:38;98323.31;;;8.69;80.67
32456;BME280;18912;43.270;27.942;2022-09-24T00:52:30;98316.88;;;8.70;80.16
32456;BME280;18912;43.270;27.942;2022-09-24T00:54:56;98308.72;;;8.64;80.16
32456;BME280;18912;43.270;27.942;2022-09-24T00:57:21;98310.59;;;8.63;80.31
32456;BME280;18912;43.270;27.942;2022-09-24T00:59:47;98316.16;;;8.62;80.71
32456;BME280;18912;43.270;27.942;2022-09-24T01:02:13;98309.94;;;8.61;80.42
32456;BME280;18912;43.270;27.942;2022-09-24T01:04:39;98317.06;;;8.69;79.45
32456;BME280;18912;43.270;27.942;2022-09-24T01:07:05;98314.56;;;8.67;79.15
32456;BME280;18912;43.270;27.942;2022-09-24T01:09:30;98309.94;;;8.61;78.90
32456;BME280;18912;43.270;27.942;2022-09-24T01:26:15;98314.91;;;8.43;81.70
32456;BME280;18912;43.270;27.942;2022-09-24T01:32:05;98311.53;;;8.56;81.70
32456;BME280;18912;43.270;27.942;2022-09-24T01:34:38;98314.88;;;8.58;81.91
32456;BME280;18912;43.270;27.942;2022-09-24T01:37:05;98316.63;;;8.65;82.42
32456;BME280;18912;43.270;27.942;2022-09-24T01:39:32;98321.25;;;8.71;82.88
32456;BME280;18912;43.270;27.942;2022-09-24T01:42:00;98314.91;;;8.79;83.06
32456;BME280;18912;43.270;27.942;2022-09-24T01:44:26;98319.03;;;8.96;83.54
32456;BME280;18912;43.270;27.942;2022-09-24T01:46:51;98326.69;;;9.13;83.56
32456;BME280;18912;43.270;27.942;2022-09-24T01:49:18;98322.19;;;9.20;83.89
32456;BME280;18912;43.270;27.942;2022-09-24T01:51:53;98321.78;;;9.23;84.43
32456;BME280;18912;43.270;27.942;2022-09-24T01:54:30;98324.53;;;9.30;84.45
32456;BME280;18912;43.270;27.942;2022-09-24T01:59:47;98323.97;;;9.34;84.37
32456;BME280;18912;43.270;27.942;2022-09-24T02:07:51;98316.44;;;9.30;83.93
32456;BME280;18912;43.270;27.942;2022-09-24T02:10:19;98326.03;;;9.32;83.98
32456;BME280;18912;43.270;27.942;2022-09-24T02:12:46;98326.81;;;9.26;84.22
32456;BME280;18912;43.270;27.942;2022-09-24T02:15:37;98326.84;;;9.33;84.03
32456;BME280;18912;43.270;27.942;2022-09-24T02:18:08;98329.97;;;9.36;84.08
32456;BME280;18912;43.270;27.942;2022-09-24T02:20:38;98318.22;;;9.44;84.23
32456;BME280;18912;43.270;27.942;2022-09-24T02:23:05;98326.13;;;9.46;84.32
32456;BME280;18912;43.270;27.942;2022-09-24T02:25:37;98327.88;;;9.53;83.89
32456;BME280;18912;43.270;27.942;2022-09-24T02:28:03;98326.94;;;9.46;84.03
32456;BME280;18912;43.270;27.942;2022-09-24T02:30:32;98324.31;;;9.53;83.96
32456;BME280;18912;43.270;27.942;2022-09-24T02:33:03;98326.59;;;9.49;83.75
32456;BME280;18912;43.270;27.942;2022-09-24T02:35:50;98335.66;;;9.41;83.66
32456;BME280;18912;43.270;27.942;2022-09-24T02:38:17;98337.50;;;9.41;83.14
32456;BME280;18912;43.270;27.942;2022-09-24T02:40:43;98328.53;;;9.34;83.67
32456;BME280;18912;43.270;27.942;2022-09-24T02:43:09;98330.38;;;9.33;83.83
32456;BME280;18912;43.270;27.942;2022-09-24T02:45:34;98324.03;;;9.20;84.18
32456;BME280;18912;43.270;27.942;2022-09-24T02:48:00;98334.63;;;9.21;84.54
32456;BME280;18912;43.270;27.942;2022-09-24T02:50:26;98339.97;;;9.15;84.51
32456;BME280;18912;43.270;27.942;2022-09-24T02:52:51;98331.44;;;9.11;85.27
32456;BME280;18912;43.270;27.942;2022-09-24T02:55:17;98330.38;;;9.12;85.58
32456;BME280;18912;43.270;27.942;2022-09-24T02:57:42;98333.44;;;7.50;93.64
32456;BME280;18912;43.270;27.942;2022-09-24T03:00:08;98333.47;;;7.65;94.58
32456;BME280;18912;43.270;27.942;2022-09-24T03:02:34;98341.78;;;7.18;98.78
32456;BME280;18912;43.270;27.942;2022-09-24T03:04:59;98335.34;;;7.27;100.00
32456;BME280;18912;43.270;27.942;2022-09-24T03:07:25;98337.44;;;7.54;99.17
32456;BME280;18912;43.270;27.942;2022-09-24T03:09:50;98341.69;;;7.12;100.00
32456;BME280;18912;43.270;27.942;2022-09-24T03:12:16;98351.22;;;7.14;100.00
32456;BME280;18912;43.270;27.942;2022-09-24T03:14:41;98343.28;;;7.21;100.00
32456;BME280;18912;43.270;27.942;2022-09-24T03:17:07;98341.22;;;7.45;100.00
32456;BME280;18912;43.270;27.942;2022-09-24T03:19:32;98347.63;;;7.44;100.00
32456;BME280;18912;43.270;27.942;2022-09-24T03:21:57;98352.16;;;7.44;100.00
32456;BME280;18912;43.270;27.942;2022-09-24T03:24:23;98359.00;;;7.69;100.00
32456;BME280;18912;43.270;27.942;2022-09-24T03:26:48;98361.28;;;7.57;100.00
32456;BME280;18912;43.270;27.942;2022-09-24T03:29:14;98367.84;;;7.40;100.00
32456;BME280;18912;43.270;27.942;2022-09-24T03:31:39;98356.91;;;7.56;100.00
32456;BME280;18912;43.270;27.942;2022-09-24T03:34:05;98357.78;;;7.72;100.00
32456;BME280;18912;43.270;27.942;2022-09-24T03:36:30;98367.88;;;7.70;100.00
32456;BME280;18912;43.270;27.942;2022-09-24T03:38:56;98360.41;;;7.80;100.00
32456;BME280;18912;43.270;27.942;2022-09-24T03:41:26;98371.16;;;7.94;100.00
32456;BME280;18912;43.270;27.942;2022-09-24T03:43:52;98366.19;;;8.35;100.00
32456;BME280;18912;43.270;27.942;2022-09-24T03:46:18;98363.03;;;8.31;100.00
32456;BME280;18912;43.270;27.942;2022-09-24T03:48:44;98367.38;;;8.18;100.00
32456;BME280;18912;43.270;27.942;2022-09-24T03:51:17;98374.41;;;8.19;100.00
32456;BME280;18912;43.270;27.942;2022-09-24T03:53:43;98370.03;;;8.26;100.00
32456;BME280;18912;43.270;27.942;2022-09-24T03:56:10;98379.34;;;8.15;100.00
32456;BME280;18912;43.270;27.942;2022-09-24T03:58:37;98379.00;;;8.18;100.00
32456;BME280;18912;43.270;27.942;2022-09-24T04:01:06;98375.53;;;8.10;100.00
32456;BME280;18912;43.270;27.942;2022-09-24T04:03:32;98377.56;;;7.79;100.00
32456;BME280;18912;43.270;27.942;2022-09-24T04:05:58;98380.00;;;8.03;100.00
32456;BME280;18912;43.270;27.942;2022-09-24T04:08:23;98385.19;;;7.90;100.00
32456;BME280;18912;43.270;27.942;2022-09-24T04:10:50;98383.41;;;7.82;100.00
32456;BME280;18912;43.270;27.942;2022-09-24T04:13:16;98387.50;;;7.93;100.00
32456;BME280;18912;43.270;27.942;2022-09-24T04:15:42;98388.75;;;8.34;100.00
32456;BME280;18912;43.270;27.942;2022-09-24T04:18:08;98388.47;;;8.29;100.00
32456;BME280;18912;43.270;27.942;2022-09-24T04:20:34;98397.16;;;8.02;100.00
32456;BME280;18912;43.270;27.942;2022-09-24T04:23:01;98402.19;;;8.19;100.00
32456;BME280;18912;43.270;27.942;2022-09-24T04:25:28;98409.44;;;8.19;100.00
32456;BME280;18912;43.270;27.942;2022-09-24T04:28:00;98408.16;;;8.15;100.00
32456;BME280;18912;43.270;27.942;2022-09-24T04:30:27;98411.13;;;8.05;100.00
32456;BME280;18912;43.270;27.942;2022-09-24T04:32:53;98408.84;;;7.94;100.00
32456;BME280;18912;43.270;27.942;2022-09-24T04:35:20;98415.53;;;7.84;100.00
32456;BME280;18912;43.270;27.942;2022-09-24T04:37:46;98407.59;;;8.05;100.00
32456;BME280;18912;43.270;27.942;2022-09-24T04:40:13;98411.47;;;8.02;100.00
32456;BME280;18912;43.270;27.942;2022-09-24T04:42:39;98415.19;;;8.16;100.00
32456;BME280;18912;43.270;27.942;2022-09-24T04:45:06;98413.63;;;8.36;100.00
32456;BME280;18912;43.270;27.942;2022-09-24T04:47:33;98429.16;;;8.63;100.00
32456;BME280;18912;43.270;27.942;2022-09-24T04:49:59;98427.66;;;8.75;100.00
32456;BME280;18912;43.270;27.942;2022-09-24T04:52:26;98426.47;;;9.13;100.00
32456;BME280;18912;43.270;27.942;2022-09-24T04:54:54;98429.19;;;9.34;100.00
32456;BME280;18912;43.270;27.942;2022-09-24T04:57:22;98419.41;;;9.33;99.52
32456;BME280;18912;43.270;27.942;2022-09-24T04:59:47;98436.56;;;9.47;99.28
32456;BME280;18912;43.270;27.942;2022-09-24T05:02:13;98434.72;;;9.69;96.25
32456;BME280;18912;43.270;27.942;2022-09-24T05:04:38;98436.44;;;10.04;93.25
32456;BME280;18912;43.270;27.942;2022-09-24T05:07:04;98416.38;;;10.13;92.51
32456;BME280;18912;43.270;27.942;2022-09-24T05:09:30;98428.56;;;10.30;91.76
32456;BME280;18912;43.270;27.942;2022-09-24T05:11:57;98433.31;;;10.56;90.05
32456;BME280;18912;43.270;27.942;2022-09-24T05:14:22;98443.78;;;10.72;88.56
32456;BME280;18912;43.270;27.942;2022-09-24T05:16:48;98433.19;;;11.24;86.34
32456;BME280;18912;43.270;27.942;2022-09-24T05:19:13;98433.22;;;11.37;83.80
32456;BME280;18912;43.270;27.942;2022-09-24T05:21:39;98434.22;;;11.23;84.07
32456;BME280;18912;43.270;27.942;2022-09-24T05:24:04;98442.41;;;11.43;82.52
32456;BME280;18912;43.270;27.942;2022-09-24T05:26:30;98434.72;;;11.53;81.32
32456;BME280;18912;43.270;27.942;2022-09-24T05:29:14;98442.72;;;11.74;80.31
32456;BME280;18912;43.270;27.942;2022-09-24T05:31:40;98435.81;;;11.78;81.26
32456;BME280;18912;43.270;27.942;2022-09-24T05:34:05;98430.00;;;11.94;78.16
32456;BME280;18912;43.270;27.942;2022-09-24T05:36:31;98439.94;;;12.52;75.95
32456;BME280;18912;43.270;27.942;2022-09-24T05:38:56;98439.09;;;12.58;76.91
32456;BME280;18912;43.270;27.942;2022-09-24T05:41:22;98447.06;;;12.53;74.97
32456;BME280;18912;43.270;27.942;2022-09-24T05:43:47;98444.09;;;12.61;74.92
32456;BME280;18912;43.270;27.942;2022-09-24T05:46:13;98454.69;;;12.82;74.60
32456;BME280;18912;43.270;27.942;2022-09-24T05:48:39;98452.13;;;13.00;73.88
32456;BME280;18912;43.270;27.942;2022-09-24T05:51:04;98458.81;;;13.49;70.35
32456;BME280;18912;43.270;27.942;2022-09-24T05:53:31;98454.31;;;13.98;68.38
32456;BME280;18912;43.270;27.942;2022-09-24T05:55:57;98453.19;;;13.81;68.86
32456;BME280;18912;43.270;27.942;2022-09-24T05:58:23;98457.13;;;13.85;68.88
32456;BME280;18912;43.270;27.942;2022-09-24T06:00:49;98465.16;;;14.05;67.79
32456;BME280;18912;43.270;27.942;2022-09-24T06:03:16;98468.91;;;14.04;65.79
32456;BME280;18912;43.270;27.942;2022-09-24T06:05:46;98467.53;;;14.69;64.49
32456;BME280;18912;43.270;27.942;2022-09-24T06:08:13;98474.69;;;15.06;62.68
32456;BME280;18912;43.270;27.942;2022-09-24T06:10:39;98473.34;;;14.72;64.79
32456;BME280;18912;43.270;27.942;2022-09-24T06:13:05;98476.47;;;14.94;64.28
32456;BME280;18912;43.270;27.942;2022-09-24T06:15:31;98479.88;;;15.08;62.16
32456;BME280;18912;43.270;27.942;2022-09-24T06:17:56;98492.28;;;15.58;61.17
32456;BME280;18912;43.270;27.942;2022-09-24T06:20:22;98484.88;;;16.06;59.09
32456;BME280;18912;43.270;27.942;2022-09-24T06:22:47;98494.19;;;16.40;58.60
32456;BME280;18912;43.270;27.942;2022-09-24T06:25:13;98492.47;;;16.80;54.85
32456;BME280;18912;43.270;27.942;2022-09-24T06:39:11;98516.63;;;18.58;49.29
32456;BME280;18912;43.270;27.942;2022-09-24T06:41:37;98515.44;;;18.71;48.09
32456;BME280;18912;43.270;27.942;2022-09-24T06:44:02;98504.09;;;18.96;47.40
32456;BME280;18912;43.270;27.942;2022-09-24T06:46:28;98508.56;;;19.40;46.55
32456;BME280;18912;43.270;27.942;2022-09-24T06:48:54;98512.47;;;19.66;46.16
32456;BME280;18912;43.270;27.942;2022-09-24T06:51:20;98511.69;;;19.92;46.58
32456;BME280;18912;43.270;27.942;2022-09-24T06:53:46;98518.22;;;20.39;45.36
32456;BME280;18912;43.270;27.942;2022-09-24T06:56:14;98511.56;;;20.30;44.47
32456;BME280;18912;43.270;27.942;2022-09-24T06:58:40;98513.94;;;19.73;44.48
32456;BME280;18912;43.270;27.942;2022-09-24T07:01:05;98509.34;;;19.35;44.69
32456;BME280;18912;43.270;27.942;2022-09-24T07:03:32;98512.19;;;19.45;45.39
32456;BME280;18912;43.270;27.942;2022-09-24T07:06:03;98517.69;;;19.45;45.47
32456;BME280;18912;43.270;27.942;2022-09-24T07:08:29;98518.88;;;19.76;45.01
32456;BME280;18912;43.270;27.942;2022-09-24T07:10:55;98520.03;;;20.02;44.76
32456;BME280;18912;43.270;27.942;2022-09-24T07:13:20;98514.41;;;20.13;44.92
32456;BME280;18912;43.270;27.942;2022-09-24T07:15:48;98510.69;;;20.24;43.43
32456;BME280;18912;43.270;27.942;2022-09-24T07:18:14;98514.03;;;20.31;43.50
32456;BME280;18912;43.270;27.942;2022-09-24T07:20:40;98516.22;;;20.29;43.87
32456;BME280;18912;43.270;27.942;2022-09-24T07:23:07;98515.59;;;20.86;43.74
32456;BME280;18912;43.270;27.942;2022-09-24T07:25:34;98520.00;;;20.82;42.67
32456;BME280;18912;43.270;27.942;2022-09-24T07:28:11;98509.69;;;20.35;42.95
32456;BME280;18912;43.270;27.942;2022-09-24T07:30:37;98521.94;;;20.55;43.29
32456;BME280;18912;43.270;27.942;2022-09-24T07:33:04;98506.09;;;21.35;42.59
32456;BME280;18912;43.270;27.942;2022-09-24T07:35:30;98510.03;;;21.07;42.83
32456;BME280;18912;43.270;27.942;2022-09-24T07:38:10;98506.50;;;20.48;43.13
32456;BME280;18912;43.270;27.942;2022-09-24T07:40:39;98508.88;;;20.67;44.04
32456;BME280;18912;43.270;27.942;2022-09-24T07:43:06;98518.34;;;20.86;43.45
32456;BME280;18912;43.270;27.942;2022-09-24T07:45:36;98520.72;;;20.40;42.97
32456;BME280;18912;43.270;27.942;2022-09-24T07:48:04;98519.31;;;21.43;42.90
32456;BME280;18912;43.270;27.942;2022-09-24T07:50:33;98511.09;;;21.48;42.14
32456;BME280;18912;43.270;27.942;2022-09-24T07:52:59;98518.19;;;21.39;41.87
32456;BME280;18912;43.270;27.942;2022-09-24T07:55:25;98513.22;;;21.36;41.63
32456;BME280;18912;43.270;27.942;2022-09-24T07:57:53;98520.00;;;21.18;42.18
32456;BME280;18912;43.270;27.942;2022-09-24T08:00:20;98522.13;;;21.58;41.53
32456;BME280;18912;43.270;27.942;2022-09-24T08:02:47;98515.75;;;21.99;40.62
32456;BME280;18912;43.270;27.942;2022-09-24T08:05:13;98515.34;;;22.68;40.14
32456;BME280;18912;43.270;27.942;2022-09-24T08:07:41;98531.84;;;22.58;39.52
32456;BME280;18912;43.270;27.942;2022-09-24T08:10:08;98530.66;;;22.18;39.34
32456;BME280;18912;43.270;27.942;2022-09-24T08:12:34;98526.16;;;21.87;40.47
32456;BME280;18912;43.270;27.942;2022-09-24T08:14:59;98536.81;;;22.71;39.93
32456;BME280;18912;43.270;27.942;2022-09-24T08:17:25;98532.66;;;22.68;39.04
32456;BME280;18912;43.270;27.942;2022-09-24T08:19:51;98532.94;;;23.12;38.22
32456;BME280;18912;43.270;27.942;2022-09-24T08:22:21;98528.09;;;23.83;37.98
32456;BME280;18912;43.270;27.942;2022-09-24T08:24:46;98530.72;;;24.18;37.35
32456;BME280;18912;43.270;27.942;2022-09-24T08:27:12;98524.84;;;23.66;36.34
32456;BME280;18912;43.270;27.942;2022-09-24T08:29:37;98529.22;;;23.72;37.09
32456;BME280;18912;43.270;27.942;2022-09-24T08:32:04;98530.66;;;23.64;36.85
32456;BME280;18912;43.270;27.942;2022-09-24T08:34:30;98535.41;;;23.23;37.19
32456;BME280;18912;43.270;27.942;2022-09-24T08:36:55;98526.28;;;23.28;37.39
32456;BME280;18912;43.270;27.942;2022-09-24T08:39:21;98524.63;;;23.47;37.00
32456;BME280;18912;43.270;27.942;2022-09-24T08:41:56;98524.00;;;23.70;36.27
32456;BME280;18912;43.270;27.942;2022-09-24T08:44:42;98520.69;;;23.63;36.28
32456;BME280;18912;43.270;27.942;2022-09-24T08:47:59;98520.69;;;23.63;36.75
32456;BME280;18912;43.270;27.942;2022-09-24T08:50:33;98524.97;;;24.92;35.51
32456;BME280;18912;43.270;27.942;2022-09-24T08:53:06;98523.22;;;25.30;33.39
32456;BME280;18912;43.270;27.942;2022-09-24T08:55:40;98526.56;;;24.16;34.17
32456;BME280;18912;43.270;27.942;2022-09-24T09:06:14;98516.00;;;25.57;33.93
32456;BME280;18912;43.270;27.942;2022-09-24T09:08:55;98513.28;;;26.00;31.86
32456;BME280;18912;43.270;27.942;2022-09-24T09:11:27;98510.56;;;26.37;31.91
32456;BME280;18912;43.270;27.942;2022-09-24T09:17:19;98511.53;;;26.64;31.45
32456;BME280;18912;43.270;27.942;2022-09-24T09:19:29;98510.28;;;26.75;31.37
32456;BME280;18912;43.270;27.942;2022-09-24T09:22:12;98508.69;;;26.32;30.57
32456;BME280;18912;43.270;27.942;2022-09-24T09:24:49;98509.16;;;26.21;31.90
32456;BME280;18912;43.270;27.942;2022-09-24T09:27:16;98512.66;;;26.26;31.67
32456;BME280;18912;43.270;27.942;2022-09-24T09:29:44;98501.59;;;26.03;31.40
32456;BME280;18912;43.270;27.942;2022-09-24T09:43:06;98507.59;;;22.80;33.92
32456;BME280;18912;43.270;27.942;2022-09-24T09:46:20;98515.50;;;22.11;35.50
32456;BME280;18912;43.270;27.942;2022-09-24T09:48:51;98506.47;;;21.64;36.17
32456;BME280;18912;43.270;27.942;2022-09-24T09:51:20;98500.91;;;21.49;35.66
32456;BME280;18912;43.270;27.942;2022-09-24T09:53:57;98497.88;;;22.17;34.94
32456;BME280;18912;43.270;27.942;2022-09-24T09:56:24;98504.59;;;22.71;34.82
32456;BME280;18912;43.270;27.942;2022-09-24T09:58:51;98494.66;;;22.75;33.66
32456;BME280;18912;43.270;27.942;2022-09-24T10:01:31;98509.53;;;22.79;33.54
32456;BME280;18912;43.270;27.942;2022-09-24T10:03:57;98507.00;;;23.33;32.85
32456;BME280;18912;43.270;27.942;2022-09-24T10:06:33;98503.00;;;23.74;33.69
32456;BME280;18912;43.270;27.942;2022-09-24T10:11:39;98499.19;;;24.63;31.36
32456;BME280;18912;43.270;27.942;2022-09-24T10:14:09;98488.09;;;23.75;31.16
32456;BME280;18912;43.270;27.942;2022-09-24T10:16:43;98486.59;;;23.24;32.91
32456;BME280;18912;43.270;27.942;2022-09-24T10:19:25;98492.06;;;23.44;33.94
32456;BME280;18912;43.270;27.942;2022-09-24T10:21:52;98489.97;;;24.39;33.64
32456;BME280;18912;43.270;27.942;2022-09-24T10:24:21;98490.03;;;24.67;32.37
32456;BME280;18912;43.270;27.942;2022-09-24T10:26:48;98487.28;;;25.25;31.17
32456;BME280;18912;43.270;27.942;2022-09-24T10:29:25;98487.97;;;25.12;30.70
32456;BME280;18912;43.270;27.942;2022-09-24T10:32:21;98485.03;;;25.03;30.46
32456;BME280;18912;43.270;27.942;2022-09-24T10:34:58;98493.47;;;24.88;30.38
32456;BME280;18912;43.270;27.942;2022-09-24T10:37:24;98491.91;;;24.38;30.83
32456;BME280;18912;43.270;27.942;2022-09-24T10:40:12;98491.03;;;23.05;31.59
32456;BME280;18912;43.270;27.942;2022-09-24T10:42:39;98487.47;;;22.99;32.38
32456;BME280;18912;43.270;27.942;2022-09-24T10:45:10;98486.66;;;22.69;32.58
32456;BME280;18912;43.270;27.942;2022-09-24T10:52:53;98469.84;;;22.90;32.35
32456;BME280;18912;43.270;27.942;2022-09-24T11:01:15;98492.13;;;22.34;34.19
32456;BME280;18912;43.270;27.942;2022-09-24T11:04:06;98490.66;;;21.91;33.65
32456;BME280;18912;43.270;27.942;2022-09-24T11:09:23;98487.16;;;22.30;33.43
32456;BME280;18912;43.270;27.942;2022-09-24T11:17:31;98483.63;;;22.65;34.18
32456;BME280;18912;43.270;27.942;2022-09-24T11:28:54;98472.31;;;22.92;34.04
32456;BME280;18912;43.270;27.942;2022-09-24T11:53:12;98475.59;;;22.39;33.94
32456;BME280;18912;43.270;27.942;2022-09-24T11:55:45;98464.59;;;22.59;33.97
32456;BME280;18912;43.270;27.942;2022-09-24T11:58:25;98466.84;;;22.72;33.88
32456;BME280;18912;43.270;27.942;2022-09-24T12:00:55;98472.28;;;22.42;34.50
32456;BME280;18912;43.270;27.942;2022-09-24T12:03:24;98467.06;;;22.55;35.42
32456;BME280;18912;43.270;27.942;2022-09-24T12:06:06;98462.41;;;22.71;34.38
32456;BME280;18912;43.270;27.942;2022-09-24T12:09:07;98469.84;;;22.80;33.95
32456;BME280;18912;43.270;27.942;2022-09-24T12:12:02;98469.56;;;22.67;33.61
32456;BME280;18912;43.270;27.942;2022-09-24T12:17:17;98462.16;;;22.62;34.64
32456;BME280;18912;43.270;27.942;2022-09-24T12:19:56;98464.03;;;22.32;33.81
32456;BME280;18912;43.270;27.942;2022-09-24T12:22:24;98462.00;;;21.82;34.59
32456;BME280;18912;43.270;27.942;2022-09-24T12:24:53;98469.13;;;21.16;35.49
32456;BME280;18912;43.270;27.942;2022-09-24T12:27:32;98463.53;;;20.64;36.51
32456;BME280;18912;43.270;27.942;2022-09-24T12:33:28;98470.56;;;20.18;36.75
32456;BME280;18912;43.270;27.942;2022-09-24T12:38:49;98463.28;;;20.07;36.87
32456;BME280;18912;43.270;27.942;2022-09-24T12:41:23;98462.69;;;20.64;36.46
32456;BME280;18912;43.270;27.942;2022-09-24T12:44:06;98457.59;;;21.19;36.09
32456;BME280;18912;43.270;27.942;2022-09-24T12:51:51;98464.13;;;20.71;35.75
32456;BME280;18912;43.270;27.942;2022-09-24T12:54:35;98466.38;;;19.89;35.92
32456;BME280;18912;43.270;27.942;2022-09-24T12:57:14;98479.09;;;19.74;36.85
32456;BME280;18912;43.270;27.942;2022-09-24T12:59:51;98473.84;;;19.94;36.71
32456;BME280;18912;43.270;27.942;2022-09-24T13:02:42;98469.06;;;20.37;35.74
32456;BME280;18912;43.270;27.942;2022-09-24T13:10:34;98472.53;;;20.55;36.56
32456;BME280;18912;43.270;27.942;2022-09-24T13:13:01;98473.44;;;19.85;36.27
32456;BME280;18912;43.270;27.942;2022-09-24T13:15:36;98476.81;;;19.66;37.22
32456;BME280;18912;43.270;27.942;2022-09-24T13:20:35;98462.59;;;19.95;36.84
32456;BME280;18912;43.270;27.942;2022-09-24T13:25:57;98471.59;;;20.76;33.85
32456;BME280;18912;43.270;27.942;2022-09-24T13:28:28;98464.13;;;21.08;33.65
32456;BME280;18912;43.270;27.942;2022-09-24T13:31:07;98457.22;;;20.69;33.26
32456;BME280;18912;43.270;27.942;2022-09-24T13:33:45;98460.78;;;20.64;33.50
32456;BME280;18912;43.270;27.942;2022-09-24T13:38:55;98451.91;;;21.35;33.84
32456;BME280;18912;43.270;27.942;2022-09-24T13:41:29;98457.69;;;21.39;31.86
32456;BME280;18912;43.270;27.942;2022-09-24T13:44:03;98457.06;;;21.89;32.40
32456;BME280;18912;43.270;27.942;2022-09-24T13:46:33;98455.72;;;22.11;32.97
32456;BME280;18912;43.270;27.942;2022-09-24T13:49:04;98458.78;;;22.40;32.08
32456;BME280;18912;43.270;27.942;2022-09-24T13:51:35;98453.75;;;21.87;32.44
32456;BME280;18912;43.270;27.942;2022-09-24T13:56:31;98468.38;;;20.52;34.73
32456;BME280;18912;43.270;27.942;2022-09-24T13:59:11;98468.44;;;20.99;35.38
32456;BME280;18912;43.270;27.942;2022-09-24T14:01:41;98468.59;;;21.19;34.19
32456;BME280;18912;43.270;27.942;2022-09-24T14:04:20;98467.59;;;21.40;33.52
32456;BME280;18912;43.270;27.942;2022-09-24T14:06:52;98468.38;;;21.30;32.41
32456;BME280;18912;43.270;27.942;2022-09-24T14:09:25;98469.13;;;21.16;32.75
32456;BME280;18912;43.270;27.942;2022-09-24T14:12:21;98477.72;;;20.51;32.90
32456;BME280;18912;43.270;27.942;2022-09-24T14:14:53;98473.41;;;20.28;34.15
32456;BME280;18912;43.270;27.942;2022-09-24T14:17:21;98470.09;;;20.26;33.68
32456;BME280;18912;43.270;27.942;2022-09-24T14:19:53;98472.63;;;20.70;32.70
32456;BME280;18912;43.270;27.942;2022-09-24T14:22:30;98471.84;;;21.11;32.21
32456;BME280;18912;43.270;27.942;2022-09-24T14:25:00;98463.09;;;21.24;32.16
32456;BME280;18912;43.270;27.942;2022-09-24T14:27:28;98464.84;;;21.40;32.80
32456;BME280;18912;43.270;27.942;2022-09-24T14:29:56;98465.19;;;21.54;33.49
32456;BME280;18912;43.270;27.942;2022-09-24T14:34:55;98464.91;;;21.50;33.37
32456;BME280;18912;43.270;27.942;2022-09-24T14:37:27;98460.47;;;21.49;33.12
32456;BME280;18912;43.270;27.942;2022-09-24T14:40:11;98464.88;;;21.45;33.17
32456;BME280;18912;43.270;27.942;2022-09-24T14:42:45;98454.91;;;21.29;32.68
32456;BME280;18912;43.270;27.942;2022-09-24T14:45:28;98477.97;;;20.50;34.22
32456;BME280;18912;43.270;27.942;2022-09-24T14:48:27;98472.09;;;20.73;34.10
32456;BME280;18912;43.270;27.942;2022-09-24T14:50:50;98468.97;;;20.96;32.96
32456;BME280;18912;43.270;27.942;2022-09-24T14:55:49;98473.81;;;21.15;33.99
32456;BME280;18912;43.270;27.942;2022-09-24T15:00:55;98476.56;;;21.15;33.67
32456;BME280;18912;43.270;27.942;2022-09-24T15:03:31;98481.22;;;21.15;33.84
32456;BME280;18912;43.270;27.942;2022-09-24T15:06:02;98483.13;;;21.14;34.06
32456;BME280;18912;43.270;27.942;2022-09-24T15:08:28;98486.75;;;20.20;36.16
32456;BME280;18912;43.270;27.942;2022-09-24T15:11:03;98489.13;;;20.11;36.86
32456;BME280;18912;43.270;27.942;2022-09-24T15:13:33;98487.63;;;20.25;36.19
32456;BME280;18912;43.270;27.942;2022-09-24T15:18:26;98485.53;;;20.32;35.95
32456;BME280;18912;43.270;27.942;2022-09-24T15:20:51;98484.88;;;20.25;35.84
32456;BME280;18912;43.270;27.942;2022-09-24T15:23:17;98488.06;;;20.17;36.56
32456;BME280;18912;43.270;27.942;2022-09-24T15:25:43;98486.59;;;20.10;37.85
32456;BME280;18912;43.270;27.942;2022-09-24T15:28:13;98488.88;;;19.91;36.82
32456;BME280;18912;43.270;27.942;2022-09-24T15:30:38;98489.13;;;18.87;40.42
32456;BME280;18912;43.270;27.942;2022-09-24T15:33:11;98500.38;;;18.52;40.42
32456;BME280;18912;43.270;27.942;2022-09-24T15:35:36;98493.88;;;18.58;40.24
32456;BME280;18912;43.270;27.942;2022-09-24T15:38:02;98495.72;;;18.69;41.09
32456;BME280;18912;43.270;27.942;2022-09-24T15:40:30;98495.38;;;18.65;42.09